createdAt,value
2023-01-26T00:01:59.520Z,99598.72
2023-01-26T00:04:28.326Z,99605.34
2023-01-26T00:06:56.996Z,99601.69
2023-01-26T00:09:25.649Z,99607.00
2023-01-26T00:11:54.365Z,99601.69
2023-01-26T00:14:23.043Z,99604.16
2023-01-26T00:16:51.747Z,99599.69
2023-01-26T00:19:22.000Z,99604.38
2023-01-26T00:21:50.689Z,99608.38
2023-01-26T00:24:19.363Z,99609.16
2023-01-26T00:26:48.186Z,99609.53
2023-01-26T00:29:16.818Z,99601.72
2023-01-26T00:31:45.536Z,99599.09
2023-01-26T00:34:16.405Z,99592.47
2023-01-26T00:36:46.513Z,99593.16
2023-01-26T00:39:15.172Z,99596.44
2023-01-26T00:42:01.054Z,99587.03
2023-01-26T00:44:29.643Z,99589.84
2023-01-26T00:52:31.445Z,99584.91
2023-01-26T00:54:59.435Z,99574.19
2023-01-26T00:57:26.721Z,99578.00
2023-01-26T00:59:54.137Z,99571.41
2023-01-26T01:02:21.558Z,99576.34
2023-01-26T01:04:49.997Z,99579.63
2023-01-26T01:07:18.651Z,99581.31
2023-01-26T01:09:48.710Z,99579.97
2023-01-26T01:12:17.462Z,99574.69
2023-01-26T01:14:46.336Z,99576.00
2023-01-26T01:17:15.929Z,99571.56
2023-01-26T01:19:44.835Z,99578.47
2023-01-26T01:22:14.734Z,99572.84
2023-01-26T01:24:44.118Z,99577.47
2023-01-26T01:27:14.214Z,99574.31
2023-01-26T01:29:42.973Z,99574.00
2023-01-26T01:32:11.773Z,99574.63
2023-01-26T01:34:40.387Z,99572.81
2023-01-26T01:37:09.072Z,99571.66
2023-01-26T01:39:37.725Z,99564.56
2023-01-26T01:42:06.601Z,99566.19
2023-01-26T01:44:39.807Z,99563.38
2023-01-26T01:47:18.978Z,99549.50
2023-01-26T01:49:51.974Z,99553.81
2023-01-26T01:52:27.684Z,99544.22
2023-01-26T01:55:07.348Z,99541.56
2023-01-26T01:57:47.136Z,99536.28
2023-01-26T02:00:22.675Z,99534.28
2023-01-26T02:03:11.877Z,99531.47
2023-01-26T02:05:53.359Z,99521.25
2023-01-26T02:08:26.904Z,99524.06
2023-01-26T02:11:01.130Z,99513.50
2023-01-26T02:18:29.258Z,99515.13
2023-01-26T02:21:01.361Z,99497.63
2023-01-26T02:23:51.392Z,99504.56
2023-01-26T02:26:24.959Z,99498.91
2023-01-26T02:28:54.562Z,99492.78
2023-01-26T02:31:26.413Z,99484.69
2023-01-26T02:33:56.284Z,99485.50
2023-01-26T02:36:27.962Z,99485.50
2023-01-26T02:39:25.221Z,99482.22
2023-01-26T02:42:13.144Z,99474.09
2023-01-26T02:44:45.358Z,99471.16
2023-01-26T02:47:15.910Z,99459.97
2023-01-26T02:49:50.866Z,99454.72
2023-01-26T02:52:25.844Z,99451.41
2023-01-26T02:55:19.291Z,99450.75
2023-01-26T02:57:51.400Z,99450.75
2023-01-26T03:00:22.610Z,99441.88
2023-01-26T03:02:56.782Z,99445.66
2023-01-26T03:05:27.830Z,99446.78
2023-01-26T03:07:57.482Z,99456.41
2023-01-26T03:10:32.515Z,99450.47
2023-01-26T03:13:02.699Z,99454.75
2023-01-26T03:15:44.023Z,99451.44
2023-01-26T03:18:35.329Z,99446.63
2023-01-26T03:21:23.854Z,99452.03
2023-01-26T03:24:10.569Z,99441.13
2023-01-26T03:26:58.011Z,99451.34
2023-01-26T03:29:28.921Z,99437.16
2023-01-26T03:32:01.272Z,99446.75
2023-01-26T03:34:31.264Z,99438.81
2023-01-26T03:37:00.970Z,99439.44
2023-01-26T03:39:54.673Z,99445.75
2023-01-26T03:42:41.007Z,99441.91
2023-01-26T03:45:29.918Z,99445.41
2023-01-26T03:48:28.201Z,99443.09
2023-01-26T03:51:14.811Z,99434.16
2023-01-26T03:54:02.893Z,99445.56
2023-01-26T03:56:33.790Z,99439.13
2023-01-26T03:59:09.764Z,99439.94
2023-01-26T04:02:03.007Z,99429.53
2023-01-26T04:04:50.444Z,99431.19
2023-01-26T04:07:38.881Z,99427.53
2023-01-26T04:10:09.530Z,99419.59
2023-01-26T04:12:38.479Z,99414.19
2023-01-26T04:15:36.166Z,99409.41
2023-01-26T04:18:26.845Z,99408.09
2023-01-26T04:21:13.721Z,99406.44
2023-01-26T04:23:44.783Z,99414.75
2023-01-26T04:26:13.602Z,99414.22
2023-01-26T04:28:42.417Z,99414.22
2023-01-26T04:31:11.562Z,99415.53
2023-01-26T04:33:42.299Z,99412.69
2023-01-26T04:36:12.896Z,99413.50
2023-01-26T04:38:46.545Z,99401.28
2023-01-26T04:41:18.833Z,99403.94
2023-01-26T04:43:53.243Z,99400.16
2023-01-26T04:46:22.423Z,99397.31
2023-01-26T04:48:55.224Z,99395.31
2023-01-26T04:51:25.943Z,99387.22
2023-01-26T04:54:34.831Z,99392.72
2023-01-26T04:57:29.048Z,99389.97
2023-01-26T04:59:58.565Z,99389.28
2023-01-26T05:02:27.861Z,99389.28
2023-01-26T05:05:05.088Z,99385.31
2023-01-26T05:07:34.096Z,99383.31
2023-01-26T05:10:04.488Z,99391.09
2023-01-26T05:12:57.094Z,99390.94
2023-01-26T05:15:52.685Z,99395.56
2023-01-26T05:19:37.014Z,99396.25
2023-01-26T05:23:19.207Z,99409.47
2023-01-26T05:26:12.736Z,99398.94
2023-01-26T05:33:22.087Z,99406.50
2023-01-26T05:35:53.192Z,99411.78
2023-01-26T05:38:23.900Z,99408.50
2023-01-26T05:46:23.058Z,99416.75
2023-01-26T05:48:52.413Z,99402.22
2023-01-26T05:51:20.914Z,99405.19
2023-01-26T05:53:49.278Z,99407.19
2023-01-26T05:56:19.036Z,99402.53
2023-01-26T05:58:51.948Z,99402.22
2023-01-26T06:01:20.831Z,99401.22
2023-01-26T06:03:58.749Z,99405.53
2023-01-26T06:06:32.004Z,99397.97
2023-01-26T06:09:11.936Z,99404.53
2023-01-26T06:11:59.568Z,99399.94
2023-01-26T06:14:48.103Z,99396.63
2023-01-26T06:17:19.084Z,99396.63
2023-01-26T06:20:22.092Z,99402.91
2023-01-26T06:23:02.254Z,99410.47
2023-01-26T06:27:07.290Z,99415.13
2023-01-26T06:29:36.676Z,99413.00
2023-01-26T06:32:05.572Z,99409.56
2023-01-26T06:34:35.123Z,99417.47
2023-01-26T06:37:05.283Z,99413.16
2023-01-26T06:39:37.785Z,99410.81
2023-01-26T06:42:06.661Z,99413.13
2023-01-26T06:44:35.429Z,99408.88
2023-01-26T06:47:04.140Z,99411.50
2023-01-26T06:49:33.165Z,99399.97
2023-01-26T06:52:23.866Z,99406.56
2023-01-26T06:54:55.341Z,99406.22
2023-01-26T06:57:42.407Z,99407.59
2023-01-26T07:00:31.576Z,99407.72
2023-01-26T07:03:15.122Z,99400.94
2023-01-26T07:05:43.824Z,99403.94
2023-01-26T07:08:13.972Z,99408.59
2023-01-26T07:10:42.748Z,99416.19
2023-01-26T07:13:11.440Z,99414.06
2023-01-26T07:15:40.108Z,99406.31
2023-01-26T07:18:08.913Z,99409.94
2023-01-26T07:20:38.788Z,99402.63
2023-01-26T07:23:07.504Z,99401.16
2023-01-26T07:25:37.615Z,99395.66
2023-01-26T07:28:10.008Z,99406.22
2023-01-26T07:30:38.968Z,99397.31
2023-01-26T07:33:07.660Z,99402.59
2023-01-26T07:35:36.368Z,99393.38
2023-01-26T07:38:05.738Z,99396.66
2023-01-26T07:40:36.310Z,99394.38
2023-01-26T07:43:05.082Z,99402.13
2023-01-26T07:45:52.607Z,99408.56
2023-01-26T07:48:23.111Z,99406.91
2023-01-26T07:50:52.504Z,99406.56
2023-01-26T07:53:22.963Z,99408.19
2023-01-26T07:55:53.185Z,99407.41
2023-01-26T07:58:21.832Z,99400.94
2023-01-26T08:00:50.497Z,99399.94
2023-01-26T08:03:19.162Z,99404.72
2023-01-26T08:05:48.006Z,99402.41
2023-01-26T08:10:57.317Z,99409.19
2023-01-26T08:13:34.733Z,99406.28
2023-01-26T08:16:06.639Z,99402.81
2023-01-26T08:18:34.330Z,99409.72
2023-01-26T08:21:01.921Z,99408.56
2023-01-26T08:23:29.263Z,99398.84
2023-01-26T08:26:01.783Z,99411.91
2023-01-26T08:33:34.443Z,99398.03
2023-01-26T08:36:02.297Z,99401.03
2023-01-26T08:38:31.426Z,99401.31
2023-01-26T08:40:59.510Z,99401.84
2023-01-26T08:43:27.485Z,99399.53
2023-01-26T08:45:55.292Z,99389.13
2023-01-26T08:48:24.404Z,99383.84
2023-01-26T08:50:57.443Z,99390.59
2023-01-26T08:53:26.760Z,99389.78
2023-01-26T08:55:55.500Z,99395.75
2023-01-26T08:58:24.190Z,99394.38
2023-01-26T09:00:52.880Z,99388.09
2023-01-26T09:03:21.723Z,99399.03
2023-01-26T09:05:50.390Z,99391.75
2023-01-26T09:08:20.475Z,99400.34
2023-01-26T09:10:49.204Z,99401.16
2023-01-26T09:13:17.923Z,99406.59
2023-01-26T09:15:46.998Z,99406.09
2023-01-26T09:18:15.698Z,99412.72
2023-01-26T09:20:44.373Z,99410.25
2023-01-26T09:23:13.386Z,99403.31
2023-01-26T09:25:43.504Z,99410.22
2023-01-26T09:28:12.238Z,99400.66
2023-01-26T09:30:41.033Z,99403.13
2023-01-26T09:33:09.882Z,99412.88
2023-01-26T09:35:38.572Z,99422.31
2023-01-26T09:38:07.260Z,99424.94
2023-01-26T09:40:51.237Z,99430.19
2023-01-26T09:43:35.231Z,99425.75
2023-01-26T09:46:23.068Z,99417.97
2023-01-26T09:49:07.082Z,99421.13
2023-01-26T09:51:39.899Z,99421.44
2023-01-26T09:54:26.883Z,99424.09
2023-01-26T09:56:57.933Z,99429.56
2023-01-26T09:59:36.727Z,99414.56
2023-01-26T10:02:24.960Z,99424.25
2023-01-26T10:04:59.672Z,99417.84
2023-01-26T10:07:28.458Z,99418.84
2023-01-26T10:09:57.626Z,99425.25
2023-01-26T10:12:36.298Z,99418.81
2023-01-26T10:15:09.784Z,99411.19
2023-01-26T10:17:43.277Z,99408.88
2023-01-26T10:20:32.119Z,99418.16
2023-01-26T10:23:07.783Z,99414.69
2023-01-26T10:25:39.363Z,99417.16
2023-01-26T10:28:17.829Z,99414.53
2023-01-26T10:30:49.261Z,99412.19
2023-01-26T10:33:23.310Z,99411.53
2023-01-26T10:35:52.082Z,99413.84
2023-01-26T10:38:41.594Z,99412.00
2023-01-26T10:41:29.214Z,99406.28
2023-01-26T10:44:04.537Z,99399.53
2023-01-26T10:46:36.768Z,99394.75
2023-01-26T10:49:17.895Z,99392.75
2023-01-26T10:52:06.203Z,99390.28
2023-01-26T10:54:37.200Z,99394.41
2023-01-26T10:57:17.478Z,99401.03
2023-01-26T10:59:57.137Z,99391.78
2023-01-26T11:02:31.452Z,99384.16
2023-01-26T11:05:21.240Z,99389.13
2023-01-26T11:07:54.358Z,99384.16
2023-01-26T11:10:28.345Z,99383.22
2023-01-26T11:13:18.448Z,99386.84
2023-01-26T11:15:52.445Z,99384.69
2023-01-26T11:18:42.534Z,99380.06
2023-01-26T11:21:18.050Z,99390.44
2023-01-26T11:24:02.036Z,99387.50
2023-01-26T11:27:04.124Z,99386.31
2023-01-26T11:30:03.005Z,99369.00
2023-01-26T11:32:52.300Z,99369.16
2023-01-26T11:35:33.742Z,99371.81
2023-01-26T11:38:23.728Z,99371.78
2023-01-26T11:41:05.934Z,99368.31
2023-01-26T11:44:15.316Z,99362.91
2023-01-26T11:47:06.933Z,99355.00
2023-01-26T11:50:11.740Z,99350.50
2023-01-26T11:52:59.885Z,99353.47
2023-01-26T11:55:47.121Z,99343.59
2023-01-26T11:58:32.732Z,99336.63
2023-01-26T12:01:08.023Z,99339.94
2023-01-26T12:03:45.584Z,99338.59
2023-01-26T12:06:25.655Z,99339.13
2023-01-26T12:09:01.414Z,99336.13
2023-01-26T12:11:38.889Z,99331.53
2023-01-26T12:14:21.550Z,99331.69
2023-01-26T12:17:18.095Z,99331.56
2023-01-26T12:19:55.856Z,99320.50
2023-01-26T12:22:34.261Z,99310.94
2023-01-26T12:25:20.887Z,99313.25
2023-01-26T12:27:56.293Z,99307.56
2023-01-26T12:30:35.590Z,99311.25
2023-01-26T12:33:04.544Z,99310.44
2023-01-26T12:35:56.279Z,99301.00
2023-01-26T12:38:42.216Z,99309.94
2023-01-26T12:41:18.785Z,99310.25
2023-01-26T12:44:06.405Z,99308.00
2023-01-26T12:46:43.470Z,99302.38
2023-01-26T12:49:21.473Z,99301.38
2023-01-26T12:51:59.914Z,99297.09
2023-01-26T12:54:39.846Z,99294.63
2023-01-26T12:57:17.407Z,99287.53
2023-01-26T12:59:48.771Z,99279.19
2023-01-26T13:02:30.267Z,99285.47
2023-01-26T13:05:01.634Z,99284.16
2023-01-26T13:07:35.234Z,99277.22
2023-01-26T13:10:31.021Z,99276.91
2023-01-26T13:13:03.130Z,99277.56
2023-01-26T13:15:33.763Z,99269.63
2023-01-26T13:18:05.062Z,99266.97
2023-01-26T13:20:51.965Z,99267.16
2023-01-26T13:23:53.957Z,99281.25
2023-01-26T13:26:45.297Z,99283.50
2023-01-26T13:29:55.444Z,99273.44
2023-01-26T13:33:12.539Z,99278.59
2023-01-26T13:35:42.602Z,99276.28
2023-01-26T13:38:30.251Z,99273.59
2023-01-26T13:40:59.211Z,99274.91
2023-01-26T13:43:44.443Z,99279.19
2023-01-26T13:46:24.198Z,99275.59
2023-01-26T13:48:54.587Z,99275.91
2023-01-26T13:51:27.773Z,99281.16
2023-01-26T13:54:03.657Z,99282.50
2023-01-26T13:56:35.465Z,99281.06
2023-01-26T13:59:13.246Z,99287.78
2023-01-26T14:01:47.573Z,99280.69
2023-01-26T14:04:21.235Z,99289.69
2023-01-26T14:06:58.054Z,99293.94
2023-01-26T14:09:30.143Z,99291.13
2023-01-26T14:12:03.016Z,99286.16
2023-01-26T14:14:37.922Z,99290.44
2023-01-26T14:17:25.603Z,99286.19
2023-01-26T14:19:54.528Z,99282.56
2023-01-26T14:22:23.566Z,99287.53
2023-01-26T14:24:54.579Z,99277.97
2023-01-26T14:27:38.654Z,99287.22
2023-01-26T14:33:07.730Z,99276.69
2023-01-26T14:35:36.639Z,99278.66
2023-01-26T14:38:18.045Z,99277.31
2023-01-26T14:40:48.590Z,99279.59
2023-01-26T14:43:18.946Z,99281.25
2023-01-26T14:45:57.042Z,99272.69
2023-01-26T14:48:35.968Z,99292.63
2023-01-26T14:51:08.399Z,99286.19
2023-01-26T14:53:37.636Z,99286.53
2023-01-26T14:56:07.624Z,99288.38
2023-01-26T14:58:36.823Z,99291.84
2023-01-26T15:01:06.140Z,99279.97
2023-01-26T15:03:39.941Z,99280.59
2023-01-26T15:06:23.560Z,99285.75
2023-01-26T15:09:04.203Z,99286.59
2023-01-26T15:11:56.054Z,99280.47
2023-01-26T15:14:38.200Z,99290.16
2023-01-26T15:17:07.577Z,99293.47
2023-01-26T15:19:44.219Z,99294.84
2023-01-26T15:22:23.294Z,99297.97
2023-01-26T15:25:26.143Z,99298.81
2023-01-26T15:27:58.957Z,99296.16
2023-01-26T15:30:31.525Z,99293.53
2023-01-26T15:33:01.546Z,99301.75
2023-01-26T15:35:34.541Z,99297.47
2023-01-26T15:38:05.369Z,99300.63
2023-01-26T15:40:34.662Z,99307.72
2023-01-26T15:43:14.577Z,99296.19
2023-01-26T15:45:51.526Z,99297.00
2023-01-26T15:48:20.496Z,99296.47
2023-01-26T15:50:51.766Z,99297.47
2023-01-26T15:53:23.319Z,99296.19
2023-01-26T15:55:55.513Z,99308.06
2023-01-26T15:58:24.735Z,99307.72
2023-01-26T16:00:53.886Z,99308.84
2023-01-26T16:03:26.607Z,99309.84
2023-01-26T16:05:57.984Z,99307.72
2023-01-26T16:08:26.775Z,99311.19
2023-01-26T16:10:58.009Z,99317.13
2023-01-26T16:13:26.940Z,99315.34
2023-01-26T16:15:56.690Z,99323.25
2023-01-26T16:18:25.654Z,99320.63
2023-01-26T16:20:54.532Z,99323.56
2023-01-26T16:23:27.402Z,99315.31
2023-01-26T16:25:57.134Z,99326.56
2023-01-26T16:28:26.148Z,99331.31
2023-01-26T16:30:54.860Z,99321.25
2023-01-26T16:33:24.901Z,99325.22
2023-01-26T16:35:55.983Z,99319.78
2023-01-26T16:38:26.477Z,99333.47
2023-01-26T16:40:56.081Z,99322.59
2023-01-26T16:43:28.782Z,99324.75
2023-01-26T16:45:58.124Z,99333.81
2023-01-26T16:48:28.854Z,99321.94
2023-01-26T16:50:57.811Z,99327.56
2023-01-26T16:53:33.297Z,99326.22
2023-01-26T16:56:02.281Z,99327.88
2023-01-26T16:58:33.319Z,99321.44
2023-01-26T17:01:02.488Z,99331.34
2023-01-26T17:03:31.354Z,99322.75
2023-01-26T17:06:01.387Z,99315.84
2023-01-26T17:08:31.872Z,99320.81
2023-01-26T17:11:02.793Z,99326.88
2023-01-26T17:13:32.869Z,99321.13
2023-01-26T17:16:01.905Z,99318.66
2023-01-26T17:18:33.484Z,99319.63
2023-01-26T17:21:04.810Z,99322.78
2023-01-26T17:23:38.830Z,99323.59
2023-01-26T17:26:08.210Z,99332.50
2023-01-26T17:28:40.986Z,99340.59
2023-01-26T17:31:12.238Z,99338.44
2023-01-26T17:33:41.346Z,99334.31
2023-01-26T17:36:11.292Z,99336.13
2023-01-26T17:38:41.744Z,99339.44
2023-01-26T17:41:18.142Z,99348.97
2023-01-26T17:43:49.146Z,99345.38
2023-01-26T17:46:20.761Z,99346.19
2023-01-26T17:49:14.141Z,99352.09
2023-01-26T17:51:46.863Z,99350.28
2023-01-26T17:54:17.102Z,99348.66
2023-01-26T17:56:45.891Z,99356.22
2023-01-26T17:59:14.691Z,99344.34
2023-01-26T18:01:43.404Z,99352.63
2023-01-26T18:04:12.097Z,99350.13
2023-01-26T18:06:40.885Z,99348.00
2023-01-26T18:09:09.629Z,99354.41
2023-01-26T18:11:41.783Z,99358.53
2023-01-26T18:14:10.466Z,99360.34
2023-01-26T18:16:39.293Z,99356.25
2023-01-26T18:19:36.038Z,99354.09
2023-01-26T18:22:04.966Z,99363.81
2023-01-26T18:24:36.563Z,99369.41
2023-01-26T18:27:07.706Z,99361.50
2023-01-26T18:29:42.489Z,99357.88
2023-01-26T18:32:15.492Z,99365.13
2023-01-26T18:34:45.243Z,99358.06
2023-01-26T18:37:14.072Z,99365.13
2023-01-26T18:39:42.829Z,99368.75
2023-01-26T18:42:12.933Z,99365.13
2023-01-26T18:44:41.730Z,99367.94
2023-01-26T18:47:11.607Z,99375.69
2023-01-26T18:49:40.252Z,99377.66
2023-01-26T18:52:08.895Z,99369.75
2023-01-26T18:54:37.644Z,99380.31
2023-01-26T18:57:06.416Z,99379.47
2023-01-26T18:59:38.571Z,99379.31
2023-01-26T19:02:08.781Z,99378.34
2023-01-26T19:04:37.600Z,99382.59
2023-01-26T19:07:06.424Z,99381.28
2023-01-26T19:09:36.019Z,99382.28
2023-01-26T19:12:07.535Z,99377.19
2023-01-26T19:14:37.591Z,99376.38
2023-01-26T19:17:06.433Z,99374.56
2023-01-26T19:19:35.488Z,99378.00
2023-01-26T19:22:04.428Z,99368.94
2023-01-26T19:24:33.197Z,99370.56
2023-01-26T19:27:01.948Z,99367.28
2023-01-26T19:29:30.992Z,99361.69
2023-01-26T19:32:01.141Z,99373.69
2023-01-26T19:34:31.961Z,99368.75
2023-01-26T19:37:01.509Z,99359.22
2023-01-26T19:39:31.329Z,99366.78
2023-01-26T19:42:00.298Z,99372.06
2023-01-26T19:44:29.375Z,99366.13
2023-01-26T19:46:58.518Z,99367.63
2023-01-26T19:49:29.212Z,99367.78
2023-01-26T19:51:59.456Z,99366.28
2023-01-26T19:54:28.328Z,99373.72
2023-01-26T19:56:57.404Z,99377.81
2023-01-26T19:59:27.448Z,99380.97
2023-01-26T20:01:56.204Z,99371.25
2023-01-26T20:04:24.928Z,99369.94
2023-01-26T20:06:55.069Z,99368.94
2023-01-26T20:09:23.741Z,99364.13
2023-01-26T20:11:52.771Z,99368.28
2023-01-26T20:14:21.891Z,99362.81
2023-01-26T20:16:50.765Z,99363.28
2023-01-26T20:19:19.633Z,99370.56
2023-01-26T20:21:48.376Z,99369.06
2023-01-26T20:24:18.827Z,99375.03
2023-01-26T20:26:48.286Z,99373.34
2023-01-26T20:29:20.227Z,99370.06
2023-01-26T20:31:50.179Z,99365.44
2023-01-26T20:34:21.190Z,99362.84
2023-01-26T20:36:51.267Z,99348.81
2023-01-26T20:39:25.268Z,99350.63
2023-01-26T20:41:55.168Z,99350.97
2023-01-26T20:44:24.540Z,99341.25
2023-01-26T20:46:53.585Z,99338.44
2023-01-26T20:49:22.848Z,99333.66
2023-01-26T20:51:52.349Z,99331.66
2023-01-26T20:54:23.015Z,99332.84
2023-01-26T20:56:52.323Z,99336.47
2023-01-26T20:59:22.773Z,99337.44
2023-01-26T21:01:51.923Z,99345.00
2023-01-26T21:04:20.949Z,99340.72
2023-01-26T21:06:50.237Z,99349.63
2023-01-26T21:09:19.211Z,99341.03
2023-01-26T21:11:50.022Z,99346.47
2023-01-26T21:14:19.071Z,99348.97
2023-01-26T21:16:47.821Z,99355.38
2023-01-26T21:19:16.533Z,99355.91
2023-01-26T21:21:45.628Z,99359.69
2023-01-26T21:24:15.667Z,99361.47
2023-01-26T21:26:44.488Z,99358.53
2023-01-26T21:29:17.471Z,99367.91
2023-01-26T21:31:48.893Z,99371.72
2023-01-26T21:34:17.635Z,99365.13
2023-01-26T21:36:46.425Z,99369.41
2023-01-26T21:39:16.108Z,99369.06
2023-01-26T21:42:00.833Z,99358.53
2023-01-26T21:44:32.562Z,99360.66
2023-01-26T21:47:04.215Z,99356.84
2023-01-26T21:49:32.976Z,99353.09
2023-01-26T21:52:18.973Z,99347.97
2023-01-26T21:54:47.667Z,99355.56
2023-01-26T21:57:34.350Z,99353.75
2023-01-26T22:00:05.362Z,99351.28
2023-01-26T22:02:35.097Z,99354.91
2023-01-26T22:05:03.743Z,99356.50
2023-01-26T22:07:33.247Z,99365.41
2023-01-26T22:10:01.922Z,99368.56
2023-01-26T22:12:30.870Z,99367.09
2023-01-26T22:14:59.631Z,99371.38
2023-01-26T22:17:29.705Z,99366.91
2023-01-26T22:19:59.584Z,99355.84
2023-01-26T22:22:28.232Z,99364.09
2023-01-26T22:24:56.812Z,99369.72
2023-01-26T22:27:26.543Z,99362.47
2023-01-26T22:29:55.224Z,99354.56
2023-01-26T22:32:23.940Z,99362.16
2023-01-26T22:34:53.992Z,99358.53
2023-01-26T22:37:24.683Z,99360.50
2023-01-26T22:39:53.526Z,99351.94
2023-01-26T22:42:22.982Z,99359.34
2023-01-26T22:44:51.650Z,99354.91
2023-01-26T22:47:20.428Z,99348.81
2023-01-26T22:49:49.111Z,99348.63
2023-01-26T22:52:19.199Z,99338.91
2023-01-26T22:54:47.879Z,99337.41
2023-01-26T22:57:16.666Z,99336.06
2023-01-26T22:59:45.295Z,99333.94
2023-01-26T23:02:14.029Z,99332.47
2023-01-26T23:04:42.822Z,99330.69
2023-01-26T23:07:11.626Z,99340.06
2023-01-26T23:09:41.732Z,99343.69
2023-01-26T23:12:10.467Z,99340.38
2023-01-26T23:14:39.279Z,99341.25
2023-01-26T23:17:08.316Z,99353.56
2023-01-26T23:19:36.990Z,99348.28
2023-01-26T23:22:05.907Z,99353.59
2023-01-26T23:24:34.684Z,99349.97
2023-01-26T23:27:04.844Z,99347.00
2023-01-26T23:29:33.509Z,99353.25
2023-01-26T23:32:02.280Z,99355.25
2023-01-26T23:34:30.958Z,99351.59
2023-01-26T23:36:59.624Z,99343.19
2023-01-26T23:39:28.338Z,99346.00
2023-01-26T23:41:57.013Z,99350.63
2023-01-26T23:44:27.117Z,99350.28
2023-01-26T23:46:55.937Z,99350.94
2023-01-26T23:49:24.721Z,99342.72
2023-01-26T23:51:53.379Z,99348.63
2023-01-26T23:54:22.330Z,99353.41
2023-01-26T23:56:50.968Z,99344.53
2023-01-26T23:59:19.733Z,99346.31
